TimeEDT,TemperatureF,Dew PointF,Humidity,Sea Level PressureIn,VisibilityMPH,Wind Direction,Wind SpeedMPH,Gust SpeedMPH,PrecipitationIn,Events,Conditions,WindDirDegrees,DateUTC
12:53 AM,36.0,28.9,76,30.09,10.0,Calm,Calm,-,N/A,,Clear,0,2013-10-28 04:53:00
1:53 AM,37.0,28.9,73,30.10,10.0,Calm,Calm,-,N/A,,Clear,0,2013-10-28 05:53:00
2:53 AM,35.1,28.9,78,30.10,10.0,Calm,Calm,-,N/A,,Clear,0,2013-10-28 06:53:00
3:53 AM,35.1,28.0,76,30.10,10.0,Calm,Calm,-,N/A,,Clear,0,2013-10-28 07:53:00
4:53 AM,35.1,28.9,78,30.11,10.0,Calm,Calm,-,N/A,,Clear,0,2013-10-28 08:53:00
5:53 AM,35.1,28.9,78,30.11,10.0,South,4.6,-,N/A,,Clear,180,2013-10-28 09:53:00
6:53 AM,35.1,28.9,78,30.12,10.0,South,4.6,-,N/A,,Clear,170,2013-10-28 10:53:00
7:53 AM,35.1,30.0,82,30.14,10.0,South,3.5,-,N/A,,Partly Cloudy,190,2013-10-28 11:53:00
8:53 AM,37.9,30.9,76,30.15,10.0,SSW,4.6,-,N/A,,Clear,200,2013-10-28 12:53:00
9:53 AM,46.0,32.0,58,30.14,10.0,Variable,4.6,-,N/A,,Clear,0,2013-10-28 13:53:00
10:53 AM,51.1,30.9,46,30.13,10.0,SW,11.5,19.6,N/A,,Clear,230,2013-10-28 14:53:00
11:53 AM,53.1,30.9,43,30.12,10.0,SW,10.4,19.6,N/A,,Clear,230,2013-10-28 15:53:00
12:53 PM,55.0,30.9,40,30.11,10.0,WSW,9.2,17.3,N/A,,Mostly Cloudy,250,2013-10-28 16:53:00
1:53 PM,55.9,30.9,39,30.11,10.0,West,15.0,25.3,N/A,,Scattered Clouds,260,2013-10-28 17:53:00
2:53 PM,57.0,30.0,36,30.13,10.0,West,10.4,25.3,N/A,,Mostly Cloudy,280,2013-10-28 18:53:00
3:53 PM,55.0,27.0,34,30.17,10.0,WNW,16.1,27.6,N/A,,Mostly Cloudy,300,2013-10-28 19:53:00
4:53 PM,50.0,30.9,48,30.22,10.0,NNW,16.1,-,N/A,,Scattered Clouds,340,2013-10-28 20:53:00
5:53 PM,48.0,28.9,48,30.26,10.0,NW,10.4,-,N/A,,Partly Cloudy,320,2013-10-28 21:53:00
6:53 PM,46.0,27.0,47,30.30,10.0,NNW,10.4,-,N/A,,Partly Cloudy,330,2013-10-28 22:53:00
7:53 PM,44.1,24.1,45,30.33,10.0,NNW,11.5,-,N/A,,Partly Cloudy,340,2013-10-28 23:53:00
8:53 PM,42.1,21.0,43,30.35,10.0,NNW,10.4,-,N/A,,Partly Cloudy,330,2013-10-29 00:53:00
9:53 PM,39.9,21.0,47,30.37,10.0,NNW,8.1,-,N/A,,Clear,330,2013-10-29 01:53:00
10:53 PM,39.0,19.9,46,30.38,10.0,NNW,6.9,-,N/A,,Clear,330,2013-10-29 02:53:00
11:53 PM,37.0,19.9,50,30.39,10.0,NNW,5.8,-,N/A,,Clear,340,2013-10-29 03:53:00